Time;durP1;ratioP1;P1;durP2;ratioP2;P2;SDS_P1;SDS_P2;PMS_P1;PMS_P2;Temp;Humidity;BMP_temperature;BMP_pressure;BME280_temperature;BME280_humidity;BME280_pressure;Samples;Min_cycle;Max_cycle;Signal;HPM_P1;HPM_P2
2021/08/18 00:00:06;;;;;;;8.6;4.7;;;;;;;13.28;87.94629;940.705;;;;
2021/08/18 00:02:32;;;;;;;8.7;5.3;;;;;;;13.12;87.68359;940.7399;;;;
2021/08/18 00:04:57;;;;;;;8.2;5.4;;;;;;;13.07;88.31641;940.7245;;;;
2021/08/18 00:07:22;;;;;;;8.3;5.3;;;;;;;12.99;88.98828;940.759;;;;
2021/08/18 00:09:47;;;;;;;8.4;5;;;;;;;13.01;88.93652;940.6396;;;;
2021/08/18 00:12:12;;;;;;;9.1;5;;;;;;;13.02;89.23535;940.6644;;;;
2021/08/18 00:14:37;;;;;;;8.5;4.8;;;;;;;13.13;88.66211;940.6832;;;;
2021/08/18 00:17:02;;;;;;;9.2;5.4;;;;;;;13.29;87.38379;940.5995;;;;
2021/08/18 00:19:27;;;;;;;7.4;4.8;;;;;;;13.43;86.62891;940.6306;;;;
2021/08/18 00:21:53;;;;;;;7.3;4.8;;;;;;;13.39;86.3457;940.5974;;;;
2021/08/18 00:24:28;;;;;;;8.3;5.2;;;;;;;13.34;85.7168;940.5733;;;;
2021/08/18 00:26:55;;;;;;;8.1;4.6;;;;;;;13.36;85.99609;940.5997;;;;
2021/08/18 00:29:20;;;;;;;7.9;4.5;;;;;;;13.36;86.45605;940.5869;;;;
2021/08/18 00:31:46;;;;;;;6.6;4.5;;;;;;;13.34;86.70313;940.6548;;;;
2021/08/18 00:34:11;;;;;;;8.2;4.9;;;;;;;13.27;86.37988;940.6283;;;;
2021/08/18 00:36:36;;;;;;;7.8;5.1;;;;;;;13.06;87.82031;940.5934;;;;
2021/08/18 00:39:01;;;;;;;8.9;5.4;;;;;;;12.89;88.93164;940.5941;;;;
2021/08/18 00:41:26;;;;;;;7.2;4.9;;;;;;;12.79;89.39746;940.6157;;;;
2021/08/18 00:43:51;;;;;;;8.6;5.3;;;;;;;12.96;89.1875;940.6502;;;;
2021/08/18 00:46:16;;;;;;;8;4.7;;;;;;;12.87;89.37793;940.6747;;;;
2021/08/18 00:48:41;;;;;;;8.3;4.8;;;;;;;12.87;89.125;940.6036;;;;
2021/08/18 00:51:06;;;;;;;9.1;5.4;;;;;;;12.87;87.41504;940.5547;;;;
2021/08/18 00:53:32;;;;;;;7.6;4.7;;;;;;;13.06;86.67188;940.5255;;;;
2021/08/18 00:55:57;;;;;;;7.6;4.3;;;;;;;13.16;86.09473;940.493;;;;
2021/08/18 00:58:22;;;;;;;7.7;4.2;;;;;;;13.22;86.54199;940.5778;;;;
2021/08/18 01:00:47;;;;;;;7.9;4.5;;;;;;;13.28;86.0625;940.4852;;;;
2021/08/18 01:03:13;;;;;;;8.4;4.5;;;;;;;13.37;86.60645;940.4774;;;;
2021/08/18 01:05:38;;;;;;;6.9;4.6;;;;;;;13.45;84.63477;940.449;;;;
2021/08/18 01:08:03;;;;;;;4.9;3.7;;;;;;;13.5;84.29883;940.4034;;;;
2021/08/18 01:10:28;;;;;;;8.3;4.6;;;;;;;13.47;86.08789;940.4058;;;;
2021/08/18 01:12:53;;;;;;;9.4;5;;;;;;;13.36;87.36328;940.4213;;;;
2021/08/18 01:15:18;;;;;;;7.4;4.8;;;;;;;13.33;88.40234;940.4724;;;;
2021/08/18 01:17:43;;;;;;;7;4.3;;;;;;;13.35;88.55664;940.4309;;;;
2021/08/18 01:20:08;;;;;;;9.5;5;;;;;;;13.43;87.83789;940.4041;;;;
2021/08/18 01:22:33;;;;;;;8.8;4.7;;;;;;;13.51;87.46387;940.4196;;;;
2021/08/18 01:24:59;;;;;;;8.2;5.1;;;;;;;13.42;88.83398;940.3569;;;;
2021/08/18 01:27:24;;;;;;;7.9;4.8;;;;;;;13.45;89.20898;940.405;;;;
2021/08/18 01:29:49;;;;;;;8.7;5.1;;;;;;;13.56;88.16406;940.3956;;;;
2021/08/18 01:32:14;;;;;;;8.4;4.3;;;;;;;13.59;87.94922;940.3572;;;;
2021/08/18 01:34:39;;;;;;;9.1;5.1;;;;;;;13.58;87.45508;940.33;;;;
2021/08/18 01:37:04;;;;;;;7.9;4.4;;;;;;;13.54;87.75586;940.3596;;;;
2021/08/18 01:39:30;;;;;;;7.4;4.8;;;;;;;13.55;87.45898;940.366;;;;
2021/08/18 01:41:55;;;;;;;7.4;4.5;;;;;;;13.57;87.15234;940.3467;;;;
2021/08/18 01:44:21;;;;;;;10.4;5.1;;;;;;;13.57;87.54297;940.3019;;;;
2021/08/18 01:46:47;;;;;;;7.8;4.6;;;;;;;13.52;87.85645;940.3491;;;;
2021/08/18 01:49:12;;;;;;;6.3;4.6;;;;;;;13.53;87.93848;940.389;;;;
2021/08/18 01:51:37;;;;;;;7.9;4.6;;;;;;;13.53;88.67578;940.3787;;;;
2021/08/18 01:54:02;;;;;;;8;4.6;;;;;;;13.58;88.53418;940.39;;;;
2021/08/18 01:56:27;;;;;;;8.3;4.6;;;;;;;13.55;87.86133;940.4084;;;;
2021/08/18 01:58:52;;;;;;;6.9;4.4;;;;;;;13.48;88.65332;940.4034;;;;
2021/08/18 02:01:18;;;;;;;9.2;4.9;;;;;;;13.45;88.91016;940.4714;;;;
2021/08/18 02:03:42;;;;;;;6.9;4.3;;;;;;;13.34;90.4834;940.4989;;;;
2021/08/18 02:06:08;;;;;;;7.1;4.7;;;;;;;13.3;90.9707;940.5316;;;;
2021/08/18 02:08:33;;;;;;;8.1;4.5;;;;;;;13.38;90.61035;940.5206;;;;
2021/08/18 02:10:58;;;;;;;6.8;4.3;;;;;;;13.47;89.78809;940.5122;;;;
2021/08/18 02:13:23;;;;;;;8.2;4.7;;;;;;;13.48;89.22656;940.4714;;;;
2021/08/18 02:15:48;;;;;;;7.4;4.4;;;;;;;13.45;89.70215;940.5402;;;;
2021/08/18 02:18:15;;;;;;;7.1;4.6;;;;;;;13.48;90.11328;940.5458;;;;
2021/08/18 02:20:39;;;;;;;9;5.4;;;;;;;13.46;90.33789;940.5474;;;;
2021/08/18 02:23:04;;;;;;;8.1;5.1;;;;;;;13.42;90.38574;940.5297;;;;
2021/08/18 02:25:29;;;;;;;9.2;5.2;;;;;;;13.33;90.85156;940.5181;;;;
2021/08/18 02:27:55;;;;;;;8.3;4.5;;;;;;;13.43;89.76855;940.4769;;;;
2021/08/18 02:30:20;;;;;;;8.6;4.8;;;;;;;13.36;90.09863;940.5317;;;;
2021/08/18 02:32:45;;;;;;;8.6;5.3;;;;;;;13.39;90.2998;940.5117;;;;
2021/08/18 02:35:10;;;;;;;7.4;4.7;;;;;;;13.43;89.70996;940.4945;;;;
2021/08/18 02:40:00;;;;;;;8;4.7;;;;;;;13.35;90.98145;940.5365;;;;
2021/08/18 02:42:25;;;;;;;8.3;4.8;;;;;;;13.33;91.0127;940.5179;;;;
2021/08/18 02:44:50;;;;;;;7.6;4.8;;;;;;;13.38;90.81543;940.5037;;;;
2021/08/18 02:47:15;;;;;;;8.3;4.8;;;;;;;13.42;90.58301;940.5193;;;;
2021/08/18 02:49:41;;;;;;;7.9;4.6;;;;;;;13.41;90.65039;940.5302;;;;
2021/08/18 02:52:06;;;;;;;9.3;4.9;;;;;;;13.44;90.55273;940.4481;;;;
2021/08/18 02:54:32;;;;;;;6.8;4.4;;;;;;;13.45;90.25391;940.4769;;;;
2021/08/18 02:56:57;;;;;;;6.4;4.5;;;;;;;13.48;89.74512;940.5139;;;;
2021/08/18 02:59:22;;;;;;;7.3;4.8;;;;;;;13.41;90.63867;940.5134;;;;
2021/08/18 03:01:47;;;;;;;8.5;5;;;;;;;13.3;91.51074;940.5867;;;;
2021/08/18 03:04:12;;;;;;;8.3;4.8;;;;;;;13.37;90.79004;940.5725;;;;
2021/08/18 03:06:38;;;;;;;6.9;4.4;;;;;;;13.38;90.21973;940.5917;;;;
2021/08/18 03:09:03;;;;;;;8.5;4.8;;;;;;;13.42;90.39746;940.5417;;;;
2021/08/18 03:11:28;;;;;;;13.3;5.2;;;;;;;13.42;90.05469;940.5577;;;;
2021/08/18 03:13:53;;;;;;;8.2;5.2;;;;;;;13.45;89.58887;940.5234;;;;
2021/08/18 03:16:18;;;;;;;8.9;5.6;;;;;;;13.46;89.15332;940.5474;;;;
2021/08/18 03:18:43;;;;;;;8.4;5;;;;;;;13.45;89.24219;940.6082;;;;
2021/08/18 03:21:09;;;;;;;9.3;5.1;;;;;;;13.43;89.50488;940.5441;;;;
2021/08/18 03:23:34;;;;;;;9.3;5.3;;;;;;;13.51;89.79688;940.577;;;;
2021/08/18 03:25:59;;;;;;;9.2;5.5;;;;;;;13.57;90.08398;940.5732;;;;
2021/08/18 03:28:25;;;;;;;8.8;5.3;;;;;;;13.61;88.95508;940.5717;;;;
2021/08/18 03:30:50;;;;;;;8;4.9;;;;;;;13.55;89.43652;940.6075;;;;
2021/08/18 03:33:15;;;;;;;8.5;5.2;;;;;;;13.61;89.87305;940.598;;;;
2021/08/18 03:35:40;;;;;;;10.9;5.4;;;;;;;13.57;90.75098;940.67;;;;
2021/08/18 03:38:06;;;;;;;9.5;5.7;;;;;;;13.56;90.69141;940.6236;;;;
2021/08/18 03:40:41;;;;;;;7.9;5;;;;;;;13.62;90.13965;940.6168;;;;
2021/08/18 03:43:07;;;;;;;9.7;5.5;;;;;;;13.64;89.69629;940.6248;;;;
2021/08/18 03:45:32;;;;;;;8.5;5.1;;;;;;;13.63;89.98438;940.588;;;;
2021/08/18 03:47:57;;;;;;;8.7;5;;;;;;;13.62;90.08203;940.6016;;;;
2021/08/18 03:50:22;;;;;;;8.7;5.8;;;;;;;13.68;89.29004;940.5936;;;;
2021/08/18 03:52:48;;;;;;;7.9;5;;;;;;;13.73;88.98926;940.5833;;;;
2021/08/18 03:55:13;;;;;;;9.1;5.3;;;;;;;13.69;89.70801;940.6008;;;;
2021/08/18 03:57:38;;;;;;;9.1;5.4;;;;;;;13.69;90.3291;940.5385;;;;
2021/08/18 04:00:03;;;;;;;10.3;6;;;;;;;13.75;89.7998;940.6458;;;;
2021/08/18 04:02:31;;;;;;;9.4;5.3;;;;;;;13.7;90.62793;940.6497;;;;
2021/08/18 04:04:56;;;;;;;11.3;5.8;;;;;;;13.55;90.92188;940.6428;;;;
2021/08/18 04:07:21;;;;;;;9.1;5.5;;;;;;;13.58;91.16699;940.6764;;;;
2021/08/18 04:09:46;;;;;;;8.4;5.2;;;;;;;13.62;90.55371;940.736;;;;
2021/08/18 04:12:33;;;;;;;8.9;5.2;;;;;;;13.62;90.93262;940.6951;;;;
2021/08/18 04:14:58;;;;;;;10.1;5.5;;;;;;;13.72;90.61035;940.6738;;;;
2021/08/18 04:17:23;;;;;;;10.9;5.8;;;;;;;13.75;90.45508;940.7234;;;;
2021/08/18 04:19:49;;;;;;;7.3;5.3;;;;;;;13.73;90.73926;940.7137;;;;
2021/08/18 04:22:14;;;;;;;10.1;5.4;;;;;;;13.73;89.95703;940.7489;;;;
2021/08/18 04:24:40;;;;;;;9.3;5.7;;;;;;;13.67;90.7373;940.7946;;;;
2021/08/18 04:27:06;;;;;;;11.4;5.8;;;;;;;13.73;90.26758;940.7553;;;;
2021/08/18 04:29:31;;;;;;;9.5;6;;;;;;;13.74;90.02734;940.7498;;;;
2021/08/18 04:31:57;;;;;;;9.7;5.1;;;;;;;13.72;89.81738;940.7673;;;;
2021/08/18 04:34:21;;;;;;;8.8;5.2;;;;;;;13.73;90.50684;940.7626;;;;
2021/08/18 04:36:46;;;;;;;9;5.1;;;;;;;13.62;91.46191;940.7776;;;;
2021/08/18 04:39:11;;;;;;;8.8;5.2;;;;;;;13.62;92.54492;940.7456;;;;
2021/08/18 04:41:36;;;;;;;8.3;5.3;;;;;;;13.56;92.63672;940.7444;;;;
2021/08/18 04:44:01;;;;;;;8.1;4.9;;;;;;;13.6;92.4834;940.7285;;;;
2021/08/18 04:46:27;;;;;;;8.2;5;;;;;;;13.72;91.72656;940.7193;;;;
2021/08/18 04:48:51;;;;;;;10.1;5.4;;;;;;;13.75;91.70898;940.6945;;;;
2021/08/18 04:51:16;;;;;;;10.1;5.9;;;;;;;13.73;91.10742;940.6937;;;;
2021/08/18 04:53:41;;;;;;;8.9;5.4;;;;;;;13.72;91.13965;940.6865;;;;
2021/08/18 04:56:07;;;;;;;9.9;5.7;;;;;;;13.73;90.97852;940.7145;;;;
2021/08/18 04:58:32;;;;;;;9.9;6;;;;;;;13.8;90.41895;940.6602;;;;
2021/08/18 05:00:57;;;;;;;10.2;5.7;;;;;;;13.86;89.84473;940.7302;;;;
2021/08/18 05:03:22;;;;;;;8.5;5.1;;;;;;;13.82;90.76953;940.6902;;;;
2021/08/18 05:05:47;;;;;;;9.6;5.5;;;;;;;13.81;91.20605;940.6946;;;;
2021/08/18 05:08:12;;;;;;;9.5;5.4;;;;;;;13.91;90.91504;940.7327;;;;
2021/08/18 05:10:37;;;;;;;8.6;5;;;;;;;13.87;91.23926;940.7245;;;;
2021/08/18 05:13:02;;;;;;;10.1;5.1;;;;;;;13.91;90.91504;940.723;;;;
2021/08/18 05:15:28;;;;;;;7.9;5.5;;;;;;;13.96;90.31641;940.7575;;;;
2021/08/18 05:17:52;;;;;;;8.4;5.1;;;;;;;14;90.21973;940.691;;;;
2021/08/18 05:20:17;;;;;;;9;5;;;;;;;14.03;90.2832;940.7386;;;;
2021/08/18 05:22:43;;;;;;;9.6;5.4;;;;;;;14.07;90.02539;940.7089;;;;
2021/08/18 05:25:08;;;;;;;9.6;5.1;;;;;;;14.09;90.14453;940.7153;;;;
2021/08/18 05:27:34;;;;;;;8.7;5.1;;;;;;;14.2;89.53613;940.7433;;;;
2021/08/18 05:30:00;;;;;;;6.5;4.9;;;;;;;14.26;88.71777;940.7508;;;;
2021/08/18 05:32:26;;;;;;;7.8;5;;;;;;;14.35;89.02539;940.7122;;;;
2021/08/18 05:34:50;;;;;;;9.1;5.4;;;;;;;14.52;88.43652;940.6813;;;;
2021/08/18 05:37:17;;;;;;;9.5;5.4;;;;;;;14.57;89.27539;940.6989;;;;
2021/08/18 05:39:42;;;;;;;7.4;5;;;;;;;14.63;88.72559;940.7551;;;;
2021/08/18 05:42:07;;;;;;;7.1;4.4;;;;;;;14.66;89.07715;940.7502;;;;
2021/08/18 05:44:32;;;;;;;7.6;4.7;;;;;;;14.63;88.4834;940.7391;;;;
2021/08/18 05:46:58;;;;;;;8.1;5.1;;;;;;;14.73;87.63867;940.7685;;;;
2021/08/18 05:49:23;;;;;;;7.2;4.7;;;;;;;14.75;88.63379;940.7653;;;;
2021/08/18 05:51:49;;;;;;;7.3;4.5;;;;;;;14.8;89.03516;940.6994;;;;
2021/08/18 05:54:14;;;;;;;6.7;4.7;;;;;;;15.01;88.78906;940.715;;;;
2021/08/18 05:56:39;;;;;;;8.1;4.2;;;;;;;15.11;84.87695;940.6636;;;;
2021/08/18 05:59:04;;;;;;;6.3;3.6;;;;;;;15.11;85.18652;940.7189;;;;
2021/08/18 06:01:29;;;;;;;7.1;4.1;;;;;;;15.3;85.38672;940.7392;;;;
2021/08/18 06:03:55;;;;;;;5.4;3.7;;;;;;;15.36;85.63965;940.7935;;;;
2021/08/18 06:06:20;;;;;;;5.6;3.4;;;;;;;15.62;84.43164;940.7143;;;;
2021/08/18 06:08:45;;;;;;;5.2;3.2;;;;;;;15.62;81.55566;940.7143;;;;
2021/08/18 06:11:10;;;;;;;5.8;3.9;;;;;;;15.75;82.23926;940.6548;;;;
2021/08/18 06:13:35;;;;;;;5.6;3.6;;;;;;;15.98;79.98145;940.7307;;;;
2021/08/18 06:16:01;;;;;;;6.2;3.6;;;;;;;15.95;79.05176;940.7622;;;;
2021/08/18 06:18:26;;;;;;;5.2;3.4;;;;;;;16.21;78.47266;940.7083;;;;
2021/08/18 06:20:51;;;;;;;5.8;3.8;;;;;;;15.98;79.16016;940.7789;;;;
2021/08/18 06:23:20;;;;;;;8.7;4.9;;;;;;;16.23;80.80371;940.7494;;;;
2021/08/18 06:25:41;;;;;;;5.9;4;;;;;;;16.32;78.66504;940.6788;;;;
2021/08/18 06:28:07;;;;;;;6.6;4.4;;;;;;;16.25;78.08691;940.6986;;;;
2021/08/18 06:30:32;;;;;;;7.5;4.7;;;;;;;16.42;79.65723;940.7407;;;;
2021/08/18 06:32:57;;;;;;;6.1;4.2;;;;;;;16.24;77.55371;940.7051;;;;
2021/08/18 06:35:22;;;;;;;5.8;3.6;;;;;;;16.56;77.93555;940.6124;;;;
2021/08/18 06:37:48;;;;;;;5.5;3.8;;;;;;;16.86;79.16992;940.6592;;;;
2021/08/18 06:40:13;;;;;;;7;4.4;;;;;;;16.71;78.70215;940.6172;;;;
2021/08/18 06:42:38;;;;;;;6.6;3.6;;;;;;;16.6;76.58691;940.5195;;;;
2021/08/18 06:45:03;;;;;;;4.5;3.1;;;;;;;16.74;76.11426;940.563;;;;
2021/08/18 06:47:28;;;;;;;6.3;4.1;;;;;;;16.91;77.64844;940.6339;;;;
2021/08/18 06:49:54;;;;;;;5.6;3.7;;;;;;;17.04;77.2666;940.6567;;;;
2021/08/18 06:52:20;;;;;;;6.8;4.4;;;;;;;16.86;77.38574;940.7108;;;;
2021/08/18 06:54:45;;;;;;;46.1;31.5;;;;;;;16.85;78.42676;940.7366;;;;
2021/08/18 06:57:10;;;;;;;15.7;11.4;;;;;;;16.96;78.07324;940.7651;;;;
2021/08/18 06:59:35;;;;;;;6;3.7;;;;;;;16.98;77.62695;940.6;;;;
2021/08/18 07:02:00;;;;;;;6.4;3.9;;;;;;;17.25;76.01465;940.6312;;;;
2021/08/18 07:04:26;;;;;;;4.9;2.9;;;;;;;16.9;72.54883;940.6524;;;;
2021/08/18 07:06:51;;;;;;;5.2;3.3;;;;;;;17.03;76.61426;940.6223;;;;
2021/08/18 07:09:16;;;;;;;5.4;3.3;;;;;;;17.29;74.80469;940.6443;;;;
2021/08/18 07:11:41;;;;;;;4.8;3;;;;;;;17.42;76.05566;940.6556;;;;
2021/08/18 07:14:06;;;;;;;5.7;3.3;;;;;;;17.26;71.46094;940.5941;;;;
2021/08/18 07:16:31;;;;;;;5.2;3.1;;;;;;;17.44;72.15137;940.5726;;;;
2021/08/18 07:18:56;;;;;;;4.3;3.2;;;;;;;17.8;73.23242;940.5916;;;;
2021/08/18 07:21:22;;;;;;;4.2;2.7;;;;;;;18.22;68.71191;940.6344;;;;
2021/08/18 07:23:47;;;;;;;7.4;3.4;;;;;;;18.31;69.55078;940.5926;;;;
2021/08/18 07:26:12;;;;;;;4.2;3.1;;;;;;;18.36;67.83887;940.4724;;;;
2021/08/18 07:28:37;;;;;;;6;3.2;;;;;;;18.08;70.76953;940.5928;;;;
2021/08/18 07:31:02;;;;;;;5.7;3.3;;;;;;;18.18;71.37695;940.5316;;;;
2021/08/18 07:33:27;;;;;;;5.3;3;;;;;;;18.2;71.75293;940.4547;;;;
2021/08/18 07:35:52;;;;;;;4.7;3;;;;;;;18.12;71.20605;940.5342;;;;
2021/08/18 07:38:17;;;;;;;4.3;3.2;;;;;;;18.19;69.75488;940.4669;;;;
2021/08/18 07:40:43;;;;;;;4.1;3.1;;;;;;;18.26;69.5791;940.5289;;;;
2021/08/18 07:43:08;;;;;;;5;3.3;;;;;;;18.04;69.02148;940.5724;;;;
2021/08/18 07:45:34;;;;;;;4.9;3.2;;;;;;;17.86;71.41992;940.5991;;;;
2021/08/18 07:47:59;;;;;;;4.5;3.1;;;;;;;18;70.54785;940.5848;;;;
2021/08/18 07:50:24;;;;;;;4.3;2.8;;;;;;;18.03;68.05469;940.5944;;;;
2021/08/18 07:52:49;;;;;;;4.6;3.1;;;;;;;18.16;65.90137;940.5739;;;;
2021/08/18 07:55:14;;;;;;;5;3.1;;;;;;;18.2;70.24316;940.5111;;;;
2021/08/18 07:57:39;;;;;;;4.1;2.6;;;;;;;17.96;67.30078;940.538;;;;
2021/08/18 08:00:06;;;;;;;5.2;3.1;;;;;;;17.9;70.00977;940.5887;;;;
2021/08/18 08:02:31;;;;;;;4.6;3.1;;;;;;;17.8;71.94434;940.6392;;;;
2021/08/18 08:04:57;;;;;;;4.4;3;;;;;;;17.77;73.33105;940.6033;;;;
2021/08/18 08:07:22;;;;;;;4.6;3;;;;;;;17.98;72.51758;940.5708;;;;
2021/08/18 08:09:48;;;;;;;5.1;3.5;;;;;;;18.33;69.1582;940.5858;;;;
2021/08/18 08:12:13;;;;;;;4.5;2.9;;;;;;;18.27;70.80078;940.5642;;;;
2021/08/18 08:14:38;;;;;;;3.8;2.9;;;;;;;18.38;70.66699;940.584;;;;
2021/08/18 08:17:03;;;;;;;5.3;3.3;;;;;;;18.08;72.33789;940.563;;;;
2021/08/18 08:19:28;;;;;;;3.2;2.6;;;;;;;18.32;70.36719;940.4788;;;;
2021/08/18 08:21:53;;;;;;;4.6;3.1;;;;;;;18.32;70.15723;940.4836;;;;
2021/08/18 08:24:18;;;;;;;4.9;3.1;;;;;;;18.53;68.63281;940.4561;;;;
2021/08/18 08:26:44;;;;;;;5.4;3.7;;;;;;;19.06;68.67969;940.4766;;;;
2021/08/18 08:29:10;;;;;;;5.3;3.2;;;;;;;19.23;64.94434;940.5073;;;;
2021/08/18 08:31:35;;;;;;;5.3;3.2;;;;;;;19.57;65.25098;940.5112;;;;
2021/08/18 08:34:00;;;;;;;5.1;3.5;;;;;;;19.68;64.82422;940.5019;;;;
2021/08/18 08:36:25;;;;;;;7;3.4;;;;;;;19.74;64.16797;940.5126;;;;
2021/08/18 08:38:50;;;;;;;4.4;3;;;;;;;20.04;65.98633;940.4966;;;;
2021/08/18 08:41:16;;;;;;;4;2.7;;;;;;;19.98;65.74316;940.4468;;;;
2021/08/18 08:43:41;;;;;;;5.6;3.2;;;;;;;19.72;63.97852;940.4573;;;;
2021/08/18 08:46:06;;;;;;;4.9;3.1;;;;;;;20.02;63.72949;940.5009;;;;
2021/08/18 08:48:31;;;;;;;4.3;2.7;;;;;;;19.88;61.24902;940.5017;;;;
2021/08/18 08:50:56;;;;;;;3.4;2.4;;;;;;;20.43;65.30859;940.5366;;;;
2021/08/18 08:53:21;;;;;;;3.4;2.5;;;;;;;21.54;55.84766;940.3996;;;;
2021/08/18 08:55:46;;;;;;;3.5;2.6;;;;;;;21.13;59.1875;940.5322;;;;
2021/08/18 08:58:11;;;;;;;3.6;2.3;;;;;;;21.05;59.89063;940.5765;;;;
2021/08/18 09:00:37;;;;;;;3.7;2.9;;;;;;;20.25;63.47168;940.5769;;;;
2021/08/18 09:03:02;;;;;;;4.2;2.9;;;;;;;19.62;62.85645;940.5829;;;;
2021/08/18 09:05:28;;;;;;;4;2.6;;;;;;;19.45;66.37598;940.5295;;;;
2021/08/18 09:07:53;;;;;;;3.7;2.6;;;;;;;19.51;65.27734;940.5405;;;;
2021/08/18 09:10:19;;;;;;;4.5;3;;;;;;;19.79;65.67871;940.5584;;;;
2021/08/18 09:12:43;;;;;;;3.7;2.8;;;;;;;20.27;60.89551;940.493;;;;
2021/08/18 09:15:09;;;;;;;2.9;2.3;;;;;;;20.64;59.88379;940.4886;;;;
2021/08/18 09:17:34;;;;;;;4.2;2.6;;;;;;;20.89;60.75684;940.426;;;;
2021/08/18 09:19:59;;;;;;;4.4;3;;;;;;;20.45;64.22461;940.4885;;;;
2021/08/18 09:22:24;;;;;;;3.3;2.6;;;;;;;20.91;62.53809;940.4414;;;;
2021/08/18 09:24:49;;;;;;;5.3;2.9;;;;;;;21.54;60.39063;940.4126;;;;
2021/08/18 09:27:14;;;;;;;3;2.6;;;;;;;21.73;60.28809;940.3887;;;;
2021/08/18 09:29:41;;;;;;;3.6;2.9;;;;;;;22.13;57.16406;940.3903;;;;
2021/08/18 09:32:04;;;;;;;4.6;2.7;;;;;;;22.89;60.10547;940.3727;;;;
2021/08/18 09:34:30;;;;;;;3;2.4;;;;;;;22.58;55.40332;940.3217;;;;
2021/08/18 09:36:55;;;;;;;3.5;2.6;;;;;;;22.96;54.875;940.3592;;;;
2021/08/18 09:39:21;;;;;;;3.3;2.4;;;;;;;22.3;57.28027;940.3859;;;;
2021/08/18 09:41:45;;;;;;;5.3;3.1;;;;;;;22.89;55.85254;940.3541;;;;
2021/08/18 09:44:11;;;;;;;4.3;2.8;;;;;;;22.63;54.45996;940.209;;;;
2021/08/18 09:46:36;;;;;;;2.9;2.2;;;;;;;22.21;54.8418;940.24;;;;
2021/08/18 09:49:01;;;;;;;3.8;2.7;;;;;;;21.2;60.08691;940.2855;;;;
2021/08/18 09:51:26;;;;;;;4.3;2.8;;;;;;;22.2;56.97461;940.2614;;;;
2021/08/18 09:53:51;;;;;;;3.2;2.4;;;;;;;22.04;59.28613;940.3524;;;;
2021/08/18 09:56:16;;;;;;;3.3;2.6;;;;;;;23.36;52.90332;940.3329;;;;
2021/08/18 09:58:41;;;;;;;3.8;2.7;;;;;;;23.3;53.6123;940.1972;;;;
2021/08/18 10:01:08;;;;;;;3.5;2.5;;;;;;;22.71;55.29004;940.1333;;;;
2021/08/18 10:03:32;;;;;;;4.6;2.4;;;;;;;22.81;56.6543;940.1039;;;;
2021/08/18 10:05:57;;;;;;;3.4;2.6;;;;;;;22.09;57.74609;940.1253;;;;
2021/08/18 10:08:22;;;;;;;3.7;2.4;;;;;;;22.21;58.03125;940.1499;;;;
2021/08/18 10:10:48;;;;;;;3.7;2.6;;;;;;;22.32;57.11816;940.1458;;;;
2021/08/18 10:13:13;;;;;;;3.7;2.8;;;;;;;22.98;54.31348;940.1555;;;;
2021/08/18 10:15:38;;;;;;;3.5;2.4;;;;;;;23.3;51.17969;940.1548;;;;
2021/08/18 10:18:04;;;;;;;5.3;2.5;;;;;;;23.3;50.56836;940.2263;;;;
2021/08/18 10:20:29;;;;;;;3.4;2.2;;;;;;;22.98;50.97754;940.1961;;;;
2021/08/18 10:22:54;;;;;;;2.9;2.4;;;;;;;22.91;52.95508;940.1578;;;;
2021/08/18 10:25:19;;;;;;;3.4;2.7;;;;;;;22.96;54.53613;940.1121;;;;
2021/08/18 10:27:44;;;;;;;4.2;2.7;;;;;;;22.33;56.5332;940.0936;;;;
2021/08/18 10:30:09;;;;;;;3.7;2.9;;;;;;;22.75;55.90625;940.0979;;;;
2021/08/18 10:32:35;;;;;;;4.1;3;;;;;;;22.46;56.31543;940.0009;;;;
2021/08/18 10:35:01;;;;;;;3.6;2.8;;;;;;;22.78;55.87598;939.9959;;;;
2021/08/18 10:37:26;;;;;;;4.6;2.8;;;;;;;23.71;53.7793;940.0388;;;;
2021/08/18 10:39:53;;;;;;;3.7;2.8;;;;;;;24.82;50.06836;939.9455;;;;
2021/08/18 10:42:17;;;;;;;4.5;2.8;;;;;;;24.82;52.56934;939.9319;;;;
2021/08/18 10:44:41;;;;;;;3.2;2.6;;;;;;;24.55;52.24219;939.9503;;;;
2021/08/18 10:47:06;;;;;;;3.6;2.5;;;;;;;24.37;50.33594;939.9072;;;;
2021/08/18 10:49:31;;;;;;;3.9;2.6;;;;;;;25.36;47.81445;939.8962;;;;
2021/08/18 10:51:56;;;;;;;3.1;2.5;;;;;;;25.67;46.6416;939.7969;;;;
2021/08/18 10:54:22;;;;;;;3.8;2.9;;;;;;;25.58;46.14844;939.8276;;;;
2021/08/18 10:56:48;;;;;;;3.4;2.7;;;;;;;25.38;47.0957;939.8839;;;;
2021/08/18 10:59:12;;;;;;;2.9;2.4;;;;;;;25.67;45.47168;939.8481;;;;
2021/08/18 11:01:37;;;;;;;3.9;2.9;;;;;;;26.14;44.97559;939.8105;;;;
2021/08/18 11:04:12;;;;;;;3.5;2.3;;;;;;;26.31;43.82227;939.785;;;;
2021/08/18 11:06:37;;;;;;;4.1;2.8;;;;;;;26.42;44.4834;939.7875;;;;
2021/08/18 11:09:02;;;;;;;3.1;2.3;;;;;;;27.46;41.67969;939.8159;;;;
2021/08/18 11:11:27;;;;;;;4;2.6;;;;;;;28.42;39.75879;939.7317;;;;
2021/08/18 11:13:52;;;;;;;4.1;2.5;;;;;;;28.66;38.6377;939.742;;;;
2021/08/18 11:16:18;;;;;;;3.3;2.5;;;;;;;29.37;37.85352;939.6939;;;;
2021/08/18 11:18:42;;;;;;;3;2.6;;;;;;;29.45;38.52637;939.6436;;;;
2021/08/18 11:21:07;;;;;;;3.3;2.7;;;;;;;29.97;39.08496;939.6191;;;;
2021/08/18 11:23:33;;;;;;;3.8;2.6;;;;;;;28.66;39.41113;939.6437;;;;
2021/08/18 11:26:02;;;;;;;3.2;2.5;;;;;;;28.82;39.65137;939.5659;;;;
2021/08/18 11:28:23;;;;;;;3.9;2.6;;;;;;;29.54;36.20996;939.5627;;;;
2021/08/18 11:30:48;;;;;;;3.2;2.2;;;;;;;29.29;36.63184;939.5109;;;;
2021/08/18 11:33:13;;;;;;;2.9;2.3;;;;;;;29.65;36.74414;939.4745;;;;
2021/08/18 11:35:38;;;;;;;3.4;2.4;;;;;;;29.38;36.54297;939.5206;;;;
2021/08/18 11:38:03;;;;;;;3.7;2.8;;;;;;;28.44;39.32129;939.5355;;;;
2021/08/18 11:40:30;;;;;;;3.8;2.6;;;;;;;27.76;40.18848;939.5455;;;;
2021/08/18 11:42:54;;;;;;;3.2;2.7;;;;;;;26.26;45.08203;939.5086;;;;
2021/08/18 11:45:19;;;;;;;4.5;2.9;;;;;;;26.46;46.67676;939.4275;;;;
2021/08/18 11:47:46;;;;;;;3.6;2.5;;;;;;;26.92;44.35547;939.4351;;;;
2021/08/18 11:50:10;;;;;;;3.8;2.9;;;;;;;25.27;48.16016;939.4174;;;;
2021/08/18 11:52:35;;;;;;;3.3;2.5;;;;;;;25.09;49.13086;939.5003;;;;
2021/08/18 11:55:02;;;;;;;4.2;2.8;;;;;;;24.98;47.12402;939.4241;;;;
2021/08/18 11:57:26;;;;;;;4.6;3.1;;;;;;;24.39;50.46875;939.4105;;;;
2021/08/18 11:59:52;;;;;;;3.9;2.9;;;;;;;24.59;48.78223;939.3583;;;;
2021/08/18 12:02:17;;;;;;;3.9;2.9;;;;;;;24.86;47.8916;939.408;;;;
2021/08/18 12:04:42;;;;;;;3.6;2.6;;;;;;;24.78;47.61035;939.4016;;;;
2021/08/18 12:07:10;;;;;;;5;3;;;;;;;24.56;46.9873;939.4008;;;;
2021/08/18 12:09:33;;;;;;;3.4;2.9;;;;;;;23.9;50.38867;939.4445;;;;
2021/08/18 12:11:57;;;;;;;4.4;3;;;;;;;23.86;51.97363;939.4059;;;;
2021/08/18 12:14:27;;;;;;;4.6;3.1;;;;;;;23.8;52.23828;939.4292;;;;
2021/08/18 12:16:48;;;;;;;3.6;3;;;;;;;23.34;52.20801;939.4332;;;;
2021/08/18 12:19:14;;;;;;;4.1;3;;;;;;;23.04;53.46387;939.4573;;;;
2021/08/18 12:21:39;;;;;;;5.2;3.4;;;;;;;23.3;52.34375;939.4486;;;;
2021/08/18 12:24:04;;;;;;;4;3.2;;;;;;;23.27;53.53809;939.3067;;;;
2021/08/18 12:26:29;;;;;;;4.7;3.1;;;;;;;23.31;52.36816;939.402;;;;
2021/08/18 12:28:55;;;;;;;4.4;3.2;;;;;;;23.8;51.55566;939.3681;;;;
2021/08/18 12:31:20;;;;;;;4;3.2;;;;;;;24.24;50.47461;939.3122;;;;
2021/08/18 12:33:45;;;;;;;4.6;3.1;;;;;;;24.37;48.72168;939.2852;;;;
2021/08/18 12:36:12;;;;;;;4.3;3.1;;;;;;;23.83;51.82813;939.3333;;;;
2021/08/18 12:38:37;;;;;;;4.7;3.5;;;;;;;23.42;54.00293;939.3304;;;;
2021/08/18 12:41:02;;;;;;;5;3.5;;;;;;;23.75;51.72559;939.2826;;;;
2021/08/18 12:43:27;;;;;;;4.6;3.3;;;;;;;24.04;50.6748;939.2275;;;;
2021/08/18 12:45:53;;;;;;;5;3.5;;;;;;;23.72;52.19336;939.2015;;;;
2021/08/18 12:48:18;;;;;;;4.7;3.6;;;;;;;24.6;50.96289;939.1119;;;;
2021/08/18 12:50:43;;;;;;;5.6;3.5;;;;;;;24.05;51.21973;939.1342;;;;
2021/08/18 12:53:08;;;;;;;5.3;3.7;;;;;;;23.82;52.41602;939.0455;;;;
2021/08/18 12:55:34;;;;;;;4.6;3.5;;;;;;;23.28;54.58594;939.1072;;;;
2021/08/18 12:57:58;;;;;;;6.3;4.2;;;;;;;23.56;54.67969;939.0585;;;;
2021/08/18 13:00:25;;;;;;;5.2;3.8;;;;;;;23.46;53.43164;939.1155;;;;
2021/08/18 13:02:51;;;;;;;5;3.9;;;;;;;23.36;54.38379;939.0588;;;;
2021/08/18 13:05:16;;;;;;;6.4;4.1;;;;;;;22.97;52.45703;938.9673;;;;
2021/08/18 13:07:41;;;;;;;6;4.2;;;;;;;23.29;52.88184;939.0689;;;;
2021/08/18 13:10:06;;;;;;;5.7;4.4;;;;;;;23.88;52.70605;939.0303;;;;
2021/08/18 13:12:31;;;;;;;6.2;4.6;;;;;;;23.39;51.13086;939.0421;;;;
2021/08/18 13:14:57;;;;;;;6.1;4.6;;;;;;;23.41;50.72168;939.0756;;;;
2021/08/18 13:17:26;;;;;;;6.5;4.6;;;;;;;23.1;53.03613;938.9434;;;;
2021/08/18 13:19:49;;;;;;;6.9;4.7;;;;;;;23.39;52.50684;938.9495;;;;
2021/08/18 13:22:14;;;;;;;6.1;3.9;;;;;;;23.95;50.59473;938.8844;;;;
2021/08/18 13:24:39;;;;;;;6.3;4.6;;;;;;;24.5;51.6709;938.9142;;;;
2021/08/18 13:27:04;;;;;;;6.4;4.8;;;;;;;24.4;51.68359;938.8872;;;;
2021/08/18 13:29:29;;;;;;;6.9;4.8;;;;;;;24.61;50.90625;938.8689;;;;
2021/08/18 13:31:54;;;;;;;6.8;4.8;;;;;;;24.96;48.29004;938.7928;;;;
2021/08/18 13:34:19;;;;;;;6.2;4.7;;;;;;;24.34;53.3252;938.7953;;;;
2021/08/18 13:36:46;;;;;;;7.3;4.4;;;;;;;24.41;52.62695;938.8388;;;;
2021/08/18 13:39:10;;;;;;;7.7;5.2;;;;;;;24.33;49.59082;938.7486;;;;
2021/08/18 13:41:35;;;;;;;8;5;;;;;;;24.07;50.88965;938.7699;;;;
2021/08/18 13:44:01;;;;;;;7.6;5.3;;;;;;;23.66;54.40918;938.7966;;;;
2021/08/18 13:46:26;;;;;;;7.5;5.3;;;;;;;23.14;55.70801;938.7811;;;;
2021/08/18 13:48:53;;;;;;;8.9;5.2;;;;;;;23.54;53.41797;938.753;;;;
2021/08/18 13:51:18;;;;;;;7.8;4.9;;;;;;;23.77;52.70605;938.7936;;;;
2021/08/18 13:53:43;;;;;;;6.9;4.9;;;;;;;24.01;51.91992;938.8013;;;;
2021/08/18 13:56:08;;;;;;;7.1;4.9;;;;;;;24.07;50.52734;938.7786;;;;
2021/08/18 13:58:33;;;;;;;7.7;5.3;;;;;;;23.71;50.41504;938.8434;;;;
2021/08/18 14:00:58;;;;;;;7.3;5;;;;;;;23.79;52.1416;938.7784;;;;
2021/08/18 14:03:23;;;;;;;6.4;4.8;;;;;;;23.35;54.21875;938.7875;;;;
2021/08/18 14:05:48;;;;;;;7.8;5;;;;;;;23.62;52.52246;938.806;;;;
2021/08/18 14:08:13;;;;;;;7.1;4.8;;;;;;;23.33;52.26367;938.7862;;;;
2021/08/18 14:10:38;;;;;;;7.1;5.2;;;;;;;23.02;53.76563;938.7658;;;;
2021/08/18 14:13:03;;;;;;;9.4;5.3;;;;;;;22.62;53.82324;938.7863;;;;
2021/08/18 14:15:29;;;;;;;7;5.2;;;;;;;23.15;52.76074;938.7584;;;;